sensor_id;sensor_type;location;lat;lon;timestamp;temperature;humidity
15630;DHT22;7914;50.842;0.166;2023-04-01T00:00:59;10.30;100.00
15630;DHT22;7914;50.842;0.166;2023-04-01T00:03:26;10.30;100.00
15630;DHT22;7914;50.842;0.166;2023-04-01T00:05:54;10.30;100.00
15630;DHT22;7914;50.842;0.166;2023-04-01T00:08:20;10.30;100.00
15630;DHT22;7914;50.842;0.166;2023-04-01T00:10:46;10.20;100.00
15630;DHT22;7914;50.842;0.166;2023-04-01T00:13:11;10.20;100.00
15630;DHT22;7914;50.842;0.166;2023-04-01T00:15:37;10.20;100.00
15630;DHT22;7914;50.842;0.166;2023-04-01T00:18:03;10.20;100.00
15630;DHT22;7914;50.842;0.166;2023-04-01T00:20:30;10.10;100.00
15630;DHT22;7914;50.842;0.166;2023-04-01T00:22:55;10.20;100.00
15630;DHT22;7914;50.842;0.166;2023-04-01T00:25:21;10.20;100.00
15630;DHT22;7914;50.842;0.166;2023-04-01T00:27:47;10.20;100.00
15630;DHT22;7914;50.842;0.166;2023-04-01T00:30:13;10.30;100.00
15630;DHT22;7914;50.842;0.166;2023-04-01T00:32:39;10.20;100.00
15630;DHT22;7914;50.842;0.166;2023-04-01T00:35:05;10.30;100.00
15630;DHT22;7914;50.842;0.166;2023-04-01T00:37:35;10.30;100.00
15630;DHT22;7914;50.842;0.166;2023-04-01T00:40:03;10.40;100.00
15630;DHT22;7914;50.842;0.166;2023-04-01T00:42:29;10.40;100.00
15630;DHT22;7914;50.842;0.166;2023-04-01T00:44:55;10.30;100.00
15630;DHT22;7914;50.842;0.166;2023-04-01T00:47:22;10.30;100.00
15630;DHT22;7914;50.842;0.166;2023-04-01T00:49:52;10.40;100.00
15630;DHT22;7914;50.842;0.166;2023-04-01T00:52:21;10.40;100.00
15630;DHT22;7914;50.842;0.166;2023-04-01T00:54:51;10.30;100.00
15630;DHT22;7914;50.842;0.166;2023-04-01T00:57:23;10.30;100.00
15630;DHT22;7914;50.842;0.166;2023-04-01T00:59:52;10.30;100.00
15630;DHT22;7914;50.842;0.166;2023-04-01T01:02:19;10.30;100.00
15630;DHT22;7914;50.842;0.166;2023-04-01T01:04:45;10.40;100.00
15630;DHT22;7914;50.842;0.166;2023-04-01T01:15:36;10.30;100.00
15630;DHT22;7914;50.842;0.166;2023-04-01T01:37:32;10.20;100.00
15630;DHT22;7914;50.842;0.166;2023-04-01T01:40:04;10.20;100.00
15630;DHT22;7914;50.842;0.166;2023-04-01T01:42:32;10.30;100.00
15630;DHT22;7914;50.842;0.166;2023-04-01T01:45:00;10.30;100.00
15630;DHT22;7914;50.842;0.166;2023-04-01T01:47:28;10.20;100.00
15630;DHT22;7914;50.842;0.166;2023-04-01T01:49:55;10.20;100.00
15630;DHT22;7914;50.842;0.166;2023-04-01T01:52:26;10.20;100.00
15630;DHT22;7914;50.842;0.166;2023-04-01T01:54:55;10.20;100.00
15630;DHT22;7914;50.842;0.166;2023-04-01T01:57:28;10.30;100.00
15630;DHT22;7914;50.842;0.166;2023-04-01T02:00:00;10.30;100.00
15630;DHT22;7914;50.842;0.166;2023-04-01T02:02:28;10.30;100.00
15630;DHT22;7914;50.842;0.166;2023-04-01T02:04:57;10.20;100.00
15630;DHT22;7914;50.842;0.166;2023-04-01T02:07:30;10.20;100.00
15630;DHT22;7914;50.842;0.166;2023-04-01T02:09:57;10.20;100.00
15630;DHT22;7914;50.842;0.166;2023-04-01T02:12:24;10.30;100.00
15630;DHT22;7914;50.842;0.166;2023-04-01T02:15:09;10.30;100.00
15630;DHT22;7914;50.842;0.166;2023-04-01T02:17:39;10.10;100.00
15630;DHT22;7914;50.842;0.166;2023-04-01T02:20:17;10.20;100.00
15630;DHT22;7914;50.842;0.166;2023-04-01T02:22:49;10.20;100.00
15630;DHT22;7914;50.842;0.166;2023-04-01T02:25:35;10.10;100.00
15630;DHT22;7914;50.842;0.166;2023-04-01T02:28:06;10.20;100.00
15630;DHT22;7914;50.842;0.166;2023-04-01T02:30:35;10.20;100.00
15630;DHT22;7914;50.842;0.166;2023-04-01T02:33:03;10.20;100.00
15630;DHT22;7914;50.842;0.166;2023-04-01T02:35:30;10.10;100.00
15630;DHT22;7914;50.842;0.166;2023-04-01T02:37:55;10.10;100.00
15630;DHT22;7914;50.842;0.166;2023-04-01T02:40:22;10.10;100.00
15630;DHT22;7914;50.842;0.166;2023-04-01T02:42:47;10.10;100.00
15630;DHT22;7914;50.842;0.166;2023-04-01T02:45:14;10.20;100.00
15630;DHT22;7914;50.842;0.166;2023-04-01T02:47:40;10.20;100.00
15630;DHT22;7914;50.842;0.166;2023-04-01T02:50:06;10.20;100.00
15630;DHT22;7914;50.842;0.166;2023-04-01T02:52:32;10.20;100.00
15630;DHT22;7914;50.842;0.166;2023-04-01T02:54:58;10.20;100.00
15630;DHT22;7914;50.842;0.166;2023-04-01T02:57:25;10.10;100.00
15630;DHT22;7914;50.842;0.166;2023-04-01T02:59:52;10.20;100.00
15630;DHT22;7914;50.842;0.166;2023-04-01T03:02:18;10.20;100.00
15630;DHT22;7914;50.842;0.166;2023-04-01T03:04:44;10.10;100.00
15630;DHT22;7914;50.842;0.166;2023-04-01T03:07:10;10.00;100.00
15630;DHT22;7914;50.842;0.166;2023-04-01T03:09:37;10.10;100.00
15630;DHT22;7914;50.842;0.166;2023-04-01T03:12:03;10.10;100.00
15630;DHT22;7914;50.842;0.166;2023-04-01T03:14:28;10.00;100.00
15630;DHT22;7914;50.842;0.166;2023-04-01T03:16:55;10.00;100.00
15630;DHT22;7914;50.842;0.166;2023-04-01T03:19:21;10.00;100.00
15630;DHT22;7914;50.842;0.166;2023-04-01T03:21:46;10.10;100.00
15630;DHT22;7914;50.842;0.166;2023-04-01T03:24:12;10.10;100.00
15630;DHT22;7914;50.842;0.166;2023-04-01T03:26:38;10.00;100.00
15630;DHT22;7914;50.842;0.166;2023-04-01T03:29:03;10.00;100.00
15630;DHT22;7914;50.842;0.166;2023-04-01T03:31:30;10.00;100.00
15630;DHT22;7914;50.842;0.166;2023-04-01T03:33:55;9.90;100.00
15630;DHT22;7914;50.842;0.166;2023-04-01T03:36:21;9.90;100.00
15630;DHT22;7914;50.842;0.166;2023-04-01T03:38:47;9.90;100.00
15630;DHT22;7914;50.842;0.166;2023-04-01T03:41:14;9.90;100.00
15630;DHT22;7914;50.842;0.166;2023-04-01T03:43:40;9.90;100.00
15630;DHT22;7914;50.842;0.166;2023-04-01T03:46:06;10.00;100.00
15630;DHT22;7914;50.842;0.166;2023-04-01T03:48:32;10.00;100.00
15630;DHT22;7914;50.842;0.166;2023-04-01T03:50:57;10.00;100.00
15630;DHT22;7914;50.842;0.166;2023-04-01T03:53:23;10.00;100.00
15630;DHT22;7914;50.842;0.166;2023-04-01T03:55:49;10.00;100.00
15630;DHT22;7914;50.842;0.166;2023-04-01T03:58:17;10.00;100.00
15630;DHT22;7914;50.842;0.166;2023-04-01T04:00:43;9.90;100.00
15630;DHT22;7914;50.842;0.166;2023-04-01T04:03:09;10.00;100.00
15630;DHT22;7914;50.842;0.166;2023-04-01T04:05:35;10.00;100.00
15630;DHT22;7914;50.842;0.166;2023-04-01T04:08:00;9.90;100.00
15630;DHT22;7914;50.842;0.166;2023-04-01T04:10:26;9.90;100.00
15630;DHT22;7914;50.842;0.166;2023-04-01T04:12:55;10.00;100.00
15630;DHT22;7914;50.842;0.166;2023-04-01T04:15:20;10.00;100.00
15630;DHT22;7914;50.842;0.166;2023-04-01T04:17:47;9.90;100.00
15630;DHT22;7914;50.842;0.166;2023-04-01T04:20:14;9.90;100.00
15630;DHT22;7914;50.842;0.166;2023-04-01T04:22:40;9.90;100.00
15630;DHT22;7914;50.842;0.166;2023-04-01T04:25:06;9.80;100.00
15630;DHT22;7914;50.842;0.166;2023-04-01T04:27:33;9.80;100.00
15630;DHT22;7914;50.842;0.166;2023-04-01T04:29:59;9.80;100.00
15630;DHT22;7914;50.842;0.166;2023-04-01T04:32:25;9.90;100.00
15630;DHT22;7914;50.842;0.166;2023-04-01T04:34:51;9.80;100.00
15630;DHT22;7914;50.842;0.166;2023-04-01T04:37:16;9.80;100.00
15630;DHT22;7914;50.842;0.166;2023-04-01T04:39:42;9.80;100.00
15630;DHT22;7914;50.842;0.166;2023-04-01T04:42:07;9.80;100.00
15630;DHT22;7914;50.842;0.166;2023-04-01T04:44:33;9.90;100.00
15630;DHT22;7914;50.842;0.166;2023-04-01T04:46:59;9.90;100.00
15630;DHT22;7914;50.842;0.166;2023-04-01T04:49:25;9.80;100.00
15630;DHT22;7914;50.842;0.166;2023-04-01T04:51:50;9.90;100.00
15630;DHT22;7914;50.842;0.166;2023-04-01T04:54:17;9.80;100.00
15630;DHT22;7914;50.842;0.166;2023-04-01T04:56:43;9.90;100.00
15630;DHT22;7914;50.842;0.166;2023-04-01T04:59:09;9.90;100.00
15630;DHT22;7914;50.842;0.166;2023-04-01T05:01:34;9.90;100.00
15630;DHT22;7914;50.842;0.166;2023-04-01T05:04:00;9.90;100.00
15630;DHT22;7914;50.842;0.166;2023-04-01T05:06:26;9.80;100.00
15630;DHT22;7914;50.842;0.166;2023-04-01T05:08:55;9.90;100.00
15630;DHT22;7914;50.842;0.166;2023-04-01T05:11:22;9.90;100.00
15630;DHT22;7914;50.842;0.166;2023-04-01T05:13:48;9.80;100.00
15630;DHT22;7914;50.842;0.166;2023-04-01T05:16:17;9.90;100.00
15630;DHT22;7914;50.842;0.166;2023-04-01T05:18:43;9.90;100.00
15630;DHT22;7914;50.842;0.166;2023-04-01T05:21:11;9.80;100.00
15630;DHT22;7914;50.842;0.166;2023-04-01T05:23:37;9.90;100.00
15630;DHT22;7914;50.842;0.166;2023-04-01T05:26:08;9.80;100.00
15630;DHT22;7914;50.842;0.166;2023-04-01T05:28:35;9.80;100.00
15630;DHT22;7914;50.842;0.166;2023-04-01T05:31:02;9.70;100.00
15630;DHT22;7914;50.842;0.166;2023-04-01T05:33:29;9.60;100.00
15630;DHT22;7914;50.842;0.166;2023-04-01T05:35:55;9.70;100.00
15630;DHT22;7914;50.842;0.166;2023-04-01T05:38:21;9.70;100.00
15630;DHT22;7914;50.842;0.166;2023-04-01T05:40:46;9.60;100.00
15630;DHT22;7914;50.842;0.166;2023-04-01T05:43:12;9.60;100.00
15630;DHT22;7914;50.842;0.166;2023-04-01T05:45:38;9.60;100.00
15630;DHT22;7914;50.842;0.166;2023-04-01T05:48:04;9.60;100.00
15630;DHT22;7914;50.842;0.166;2023-04-01T05:50:30;9.50;100.00
15630;DHT22;7914;50.842;0.166;2023-04-01T05:52:56;9.50;100.00
15630;DHT22;7914;50.842;0.166;2023-04-01T05:55:22;9.50;100.00
15630;DHT22;7914;50.842;0.166;2023-04-01T05:57:47;9.50;100.00
15630;DHT22;7914;50.842;0.166;2023-04-01T06:00:15;9.50;100.00
15630;DHT22;7914;50.842;0.166;2023-04-01T06:02:42;9.50;100.00
15630;DHT22;7914;50.842;0.166;2023-04-01T06:05:18;9.50;100.00
15630;DHT22;7914;50.842;0.166;2023-04-01T06:07:45;9.50;100.00
15630;DHT22;7914;50.842;0.166;2023-04-01T06:10:16;9.50;100.00
15630;DHT22;7914;50.842;0.166;2023-04-01T06:12:50;9.50;100.00
15630;DHT22;7914;50.842;0.166;2023-04-01T06:15:39;9.60;100.00
15630;DHT22;7914;50.842;0.166;2023-04-01T06:18:29;9.50;100.00
15630;DHT22;7914;50.842;0.166;2023-04-01T06:27:40;9.40;100.00
15630;DHT22;7914;50.842;0.166;2023-04-01T06:30:01;9.40;100.00
15630;DHT22;7914;50.842;0.166;2023-04-01T06:40:55;9.50;100.00
15630;DHT22;7914;50.842;0.166;2023-04-01T06:43:49;9.60;100.00
15630;DHT22;7914;50.842;0.166;2023-04-01T06:46:47;9.60;100.00
15630;DHT22;7914;50.842;0.166;2023-04-01T06:54:41;9.60;100.00
15630;DHT22;7914;50.842;0.166;2023-04-01T06:57:34;9.60;100.00
15630;DHT22;7914;50.842;0.166;2023-04-01T07:00:05;9.60;100.00
15630;DHT22;7914;50.842;0.166;2023-04-01T07:02:52;9.70;100.00
15630;DHT22;7914;50.842;0.166;2023-04-01T07:05:21;9.70;100.00
15630;DHT22;7914;50.842;0.166;2023-04-01T07:07:54;9.70;100.00
15630;DHT22;7914;50.842;0.166;2023-04-01T07:10:45;9.80;100.00
15630;DHT22;7914;50.842;0.166;2023-04-01T07:13:23;9.90;100.00
15630;DHT22;7914;50.842;0.166;2023-04-01T07:21:28;10.00;100.00
15630;DHT22;7914;50.842;0.166;2023-04-01T07:23:58;10.00;100.00
15630;DHT22;7914;50.842;0.166;2023-04-01T07:26:25;10.10;100.00
15630;DHT22;7914;50.842;0.166;2023-04-01T07:28:52;10.30;100.00
15630;DHT22;7914;50.842;0.166;2023-04-01T07:36:37;10.50;100.00
15630;DHT22;7914;50.842;0.166;2023-04-01T07:47:22;10.70;100.00
15630;DHT22;7914;50.842;0.166;2023-04-01T08:00:29;11.00;100.00
15630;DHT22;7914;50.842;0.166;2023-04-01T08:03:04;11.00;100.00
15630;DHT22;7914;50.842;0.166;2023-04-01T08:05:41;11.10;100.00
15630;DHT22;7914;50.842;0.166;2023-04-01T08:14:02;11.20;100.00
15630;DHT22;7914;50.842;0.166;2023-04-01T08:16:42;11.20;100.00
15630;DHT22;7914;50.842;0.166;2023-04-01T08:21:58;11.10;100.00
15630;DHT22;7914;50.842;0.166;2023-04-01T08:24:42;11.20;100.00
15630;DHT22;7914;50.842;0.166;2023-04-01T08:29:57;11.00;100.00
15630;DHT22;7914;50.842;0.166;2023-04-01T08:33:33;11.00;100.00
15630;DHT22;7914;50.842;0.166;2023-04-01T08:35:53;11.10;100.00
15630;DHT22;7914;50.842;0.166;2023-04-01T08:38:36;11.20;100.00
15630;DHT22;7914;50.842;0.166;2023-04-01T08:41:35;11.40;100.00
15630;DHT22;7914;50.842;0.166;2023-04-01T08:47:13;11.60;97.90
15630;DHT22;7914;50.842;0.166;2023-04-01T08:53:08;11.50;96.70
15630;DHT22;7914;50.842;0.166;2023-04-01T09:19:35;11.70;95.60
15630;DHT22;7914;50.842;0.166;2023-04-01T09:22:37;11.70;97.00
15630;DHT22;7914;50.842;0.166;2023-04-01T09:28:17;12.50;94.50
15630;DHT22;7914;50.842;0.166;2023-04-01T09:36:21;12.50;91.40
15630;DHT22;7914;50.842;0.166;2023-04-01T09:39:03;12.20;92.40
15630;DHT22;7914;50.842;0.166;2023-04-01T09:41:53;12.00;93.20
15630;DHT22;7914;50.842;0.166;2023-04-01T09:44:41;12.00;93.50
15630;DHT22;7914;50.842;0.166;2023-04-01T09:47:35;11.90;96.20
15630;DHT22;7914;50.842;0.166;2023-04-01T09:53:05;11.70;97.30
15630;DHT22;7914;50.842;0.166;2023-04-01T10:09:55;11.20;100.00
15630;DHT22;7914;50.842;0.166;2023-04-01T10:35:58;11.80;95.60
15630;DHT22;7914;50.842;0.166;2023-04-01T10:38:49;12.00;95.80
15630;DHT22;7914;50.842;0.166;2023-04-01T10:44:55;12.40;90.50
15630;DHT22;7914;50.842;0.166;2023-04-01T10:47:54;12.70;90.70
15630;DHT22;7914;50.842;0.166;2023-04-01T10:53:40;13.00;88.50
15630;DHT22;7914;50.842;0.166;2023-04-01T10:56:34;13.00;89.30
15630;DHT22;7914;50.842;0.166;2023-04-01T10:59:28;13.20;86.80
15630;DHT22;7914;50.842;0.166;2023-04-01T11:21:44;13.00;87.00
15630;DHT22;7914;50.842;0.166;2023-04-01T11:24:21;13.00;87.00
15630;DHT22;7914;50.842;0.166;2023-04-01T11:35:31;13.70;85.40
15630;DHT22;7914;50.842;0.166;2023-04-01T11:38:48;13.80;82.20
15630;DHT22;7914;50.842;0.166;2023-04-01T11:41:13;13.70;83.40
15630;DHT22;7914;50.842;0.166;2023-04-01T11:55:35;14.20;82.30
15630;DHT22;7914;50.842;0.166;2023-04-01T12:06:38;14.30;78.00
15630;DHT22;7914;50.842;0.166;2023-04-01T12:12:27;14.20;79.40
15630;DHT22;7914;50.842;0.166;2023-04-01T12:21:14;14.50;77.00
15630;DHT22;7914;50.842;0.166;2023-04-01T12:34:26;13.60;79.60
15630;DHT22;7914;50.842;0.166;2023-04-01T12:37:17;13.60;80.20
15630;DHT22;7914;50.842;0.166;2023-04-01T12:45:34;14.20;76.80
15630;DHT22;7914;50.842;0.166;2023-04-01T12:48:06;14.20;77.10
15630;DHT22;7914;50.842;0.166;2023-04-01T12:53:47;13.80;79.80
15630;DHT22;7914;50.842;0.166;2023-04-01T13:05:09;14.20;78.70
15630;DHT22;7914;50.842;0.166;2023-04-01T13:13:34;14.50;78.10
15630;DHT22;7914;50.842;0.166;2023-04-01T13:16:26;14.50;74.40
15630;DHT22;7914;50.842;0.166;2023-04-01T13:24:35;14.40;72.80
15630;DHT22;7914;50.842;0.166;2023-04-01T13:27:15;14.10;74.10
15630;DHT22;7914;50.842;0.166;2023-04-01T13:38:56;13.70;76.10
15630;DHT22;7914;50.842;0.166;2023-04-01T13:44:18;13.20;76.20
15630;DHT22;7914;50.842;0.166;2023-04-01T13:52:27;13.60;76.20
15630;DHT22;7914;50.842;0.166;2023-04-01T13:58:26;14.10;75.90
15630;DHT22;7914;50.842;0.166;2023-04-01T14:01:19;14.40;75.50
15630;DHT22;7914;50.842;0.166;2023-04-01T14:04:03;14.50;74.90
15630;DHT22;7914;50.842;0.166;2023-04-01T14:06:50;14.40;74.20
15630;DHT22;7914;50.842;0.166;2023-04-01T14:15:25;13.80;75.70
15630;DHT22;7914;50.842;0.166;2023-04-01T14:20:49;13.90;75.20
15630;DHT22;7914;50.842;0.166;2023-04-01T14:28:54;14.00;73.20
15630;DHT22;7914;50.842;0.166;2023-04-01T14:43:08;13.50;73.50
15630;DHT22;7914;50.842;0.166;2023-04-01T14:48:30;13.50;74.30
15630;DHT22;7914;50.842;0.166;2023-04-01T14:51:28;13.50;75.80
15630;DHT22;7914;50.842;0.166;2023-04-01T14:56:44;13.40;74.30
15630;DHT22;7914;50.842;0.166;2023-04-01T15:05:16;13.40;74.30
15630;DHT22;7914;50.842;0.166;2023-04-01T15:11:13;13.60;74.60
15630;DHT22;7914;50.842;0.166;2023-04-01T15:24:07;13.50;74.40
15630;DHT22;7914;50.842;0.166;2023-04-01T15:27:14;13.30;74.50
15630;DHT22;7914;50.842;0.166;2023-04-01T15:38:04;13.20;74.40
15630;DHT22;7914;50.842;0.166;2023-04-01T15:49:01;13.10;75.70
15630;DHT22;7914;50.842;0.166;2023-04-01T15:57:04;12.80;72.60
15630;DHT22;7914;50.842;0.166;2023-04-01T16:02:48;12.90;72.20
15630;DHT22;7914;50.842;0.166;2023-04-01T16:05:31;13.10;74.70
15630;DHT22;7914;50.842;0.166;2023-04-01T16:27:08;12.90;75.20
15630;DHT22;7914;50.842;0.166;2023-04-01T16:29:48;12.80;74.70
15630;DHT22;7914;50.842;0.166;2023-04-01T16:35:33;12.70;75.00
15630;DHT22;7914;50.842;0.166;2023-04-01T16:47:05;12.50;74.70
15630;DHT22;7914;50.842;0.166;2023-04-01T16:54:43;12.10;75.90
15630;DHT22;7914;50.842;0.166;2023-04-01T17:12:35;11.80;78.00
15630;DHT22;7914;50.842;0.166;2023-04-01T17:18:03;11.70;78.90
15630;DHT22;7914;50.842;0.166;2023-04-01T17:20:53;11.70;78.30
15630;DHT22;7914;50.842;0.166;2023-04-01T17:28:46;11.50;77.50
15630;DHT22;7914;50.842;0.166;2023-04-01T17:34:33;11.30;77.40
15630;DHT22;7914;50.842;0.166;2023-04-01T17:43:37;11.20;78.70
15630;DHT22;7914;50.842;0.166;2023-04-01T17:49:35;11.10;80.40
15630;DHT22;7914;50.842;0.166;2023-04-01T17:52:18;11.10;80.40
15630;DHT22;7914;50.842;0.166;2023-04-01T17:54:57;11.10;81.30
15630;DHT22;7914;50.842;0.166;2023-04-01T17:57:43;11.00;81.30
15630;DHT22;7914;50.842;0.166;2023-04-01T18:00:37;11.10;81.80
15630;DHT22;7914;50.842;0.166;2023-04-01T18:03:12;11.00;81.30
15630;DHT22;7914;50.842;0.166;2023-04-01T18:05:57;11.10;80.60
15630;DHT22;7914;50.842;0.166;2023-04-01T18:14:44;10.80;80.80
15630;DHT22;7914;50.842;0.166;2023-04-01T18:17:25;10.70;81.50
15630;DHT22;7914;50.842;0.166;2023-04-01T18:20:08;10.70;81.50
15630;DHT22;7914;50.842;0.166;2023-04-01T18:22:44;10.70;81.40
15630;DHT22;7914;50.842;0.166;2023-04-01T18:31:09;10.50;82.90
15630;DHT22;7914;50.842;0.166;2023-04-01T18:39:10;10.40;82.70
15630;DHT22;7914;50.842;0.166;2023-04-01T18:44:51;10.40;82.50
15630;DHT22;7914;50.842;0.166;2023-04-01T18:47:40;10.30;81.80
15630;DHT22;7914;50.842;0.166;2023-04-01T18:50:21;10.30;82.30
15630;DHT22;7914;50.842;0.166;2023-04-01T18:55:58;10.30;81.70
15630;DHT22;7914;50.842;0.166;2023-04-01T18:58:34;10.30;82.70
15630;DHT22;7914;50.842;0.166;2023-04-01T19:01:16;10.30;82.10
15630;DHT22;7914;50.842;0.166;2023-04-01T19:06:32;10.30;83.10
15630;DHT22;7914;50.842;0.166;2023-04-01T19:10:00;10.30;83.90
15630;DHT22;7914;50.842;0.166;2023-04-01T19:14:57;10.20;84.70
15630;DHT22;7914;50.842;0.166;2023-04-01T19:19:55;10.20;85.80
15630;DHT22;7914;50.842;0.166;2023-04-01T19:25:35;10.10;85.20
15630;DHT22;7914;50.842;0.166;2023-04-01T19:28:16;10.10;85.20
15630;DHT22;7914;50.842;0.166;2023-04-01T19:30:59;10.00;85.30
15630;DHT22;7914;50.842;0.166;2023-04-01T19:33:58;10.10;85.10
15630;DHT22;7914;50.842;0.166;2023-04-01T19:37:20;10.10;85.90
15630;DHT22;7914;50.842;0.166;2023-04-01T19:41:51;10.10;84.80
15630;DHT22;7914;50.842;0.166;2023-04-01T19:44:31;10.00;84.20
15630;DHT22;7914;50.842;0.166;2023-04-01T19:47:11;10.00;83.80
15630;DHT22;7914;50.842;0.166;2023-04-01T19:50:01;10.00;84.00
15630;DHT22;7914;50.842;0.166;2023-04-01T19:52:41;10.00;84.90
15630;DHT22;7914;50.842;0.166;2023-04-01T20:00:59;10.00;84.00
15630;DHT22;7914;50.842;0.166;2023-04-01T20:03:46;10.00;83.10
15630;DHT22;7914;50.842;0.166;2023-04-01T20:06:35;10.10;83.10
15630;DHT22;7914;50.842;0.166;2023-04-01T20:12:47;10.10;83.90
15630;DHT22;7914;50.842;0.166;2023-04-01T20:15:03;10.00;83.70
15630;DHT22;7914;50.842;0.166;2023-04-01T20:17:38;10.20;83.00
15630;DHT22;7914;50.842;0.166;2023-04-01T20:25:51;10.00;84.80
15630;DHT22;7914;50.842;0.166;2023-04-01T20:28:25;10.00;85.30
15630;DHT22;7914;50.842;0.166;2023-04-01T20:34:30;9.90;84.10
15630;DHT22;7914;50.842;0.166;2023-04-01T20:36:56;9.90;85.60
15630;DHT22;7914;50.842;0.166;2023-04-01T20:45:14;9.90;84.90
15630;DHT22;7914;50.842;0.166;2023-04-01T20:53:29;9.40;91.60
15630;DHT22;7914;50.842;0.166;2023-04-01T20:56:17;9.30;93.20
15630;DHT22;7914;50.842;0.166;2023-04-01T21:04:09;9.30;93.80
15630;DHT22;7914;50.842;0.166;2023-04-01T21:19:50;9.30;93.80
15630;DHT22;7914;50.842;0.166;2023-04-01T21:28:16;9.20;94.50
15630;DHT22;7914;50.842;0.166;2023-04-01T21:36:58;9.30;93.80
15630;DHT22;7914;50.842;0.166;2023-04-01T21:55:52;9.00;94.30
15630;DHT22;7914;50.842;0.166;2023-04-01T21:58:47;9.10;93.20
15630;DHT22;7914;50.842;0.166;2023-04-01T22:07:15;9.20;91.50
15630;DHT22;7914;50.842;0.166;2023-04-01T22:09:45;9.20;91.60
15630;DHT22;7914;50.842;0.166;2023-04-01T22:17:55;9.20;90.30
15630;DHT22;7914;50.842;0.166;2023-04-01T22:20:36;9.20;90.60
15630;DHT22;7914;50.842;0.166;2023-04-01T22:23:42;9.10;90.20
15630;DHT22;7914;50.842;0.166;2023-04-01T22:26:24;9.00;90.70
15630;DHT22;7914;50.842;0.166;2023-04-01T22:31:55;9.20;90.80
15630;DHT22;7914;50.842;0.166;2023-04-01T22:34:40;9.10;90.70
15630;DHT22;7914;50.842;0.166;2023-04-01T22:56:30;8.90;87.50
15630;DHT22;7914;50.842;0.166;2023-04-01T22:59:38;8.80;87.80
15630;DHT22;7914;50.842;0.166;2023-04-01T23:02:31;8.90;86.80
15630;DHT22;7914;50.842;0.166;2023-04-01T23:05:03;8.70;86.90
15630;DHT22;7914;50.842;0.166;2023-04-01T23:10:43;8.70;86.70
15630;DHT22;7914;50.842;0.166;2023-04-01T23:13:26;8.70;86.90
15630;DHT22;7914;50.842;0.166;2023-04-01T23:15:53;8.70;87.60
15630;DHT22;7914;50.842;0.166;2023-04-01T23:26:29;8.60;87.50
15630;DHT22;7914;50.842;0.166;2023-04-01T23:28:58;8.50;87.30
15630;DHT22;7914;50.842;0.166;2023-04-01T23:31:37;8.50;87.40
15630;DHT22;7914;50.842;0.166;2023-04-01T23:34:24;8.50;87.50
15630;DHT22;7914;50.842;0.166;2023-04-01T23:36:57;8.50;88.20
15630;DHT22;7914;50.842;0.166;2023-04-01T23:39:29;8.40;88.60
15630;DHT22;7914;50.842;0.166;2023-04-01T23:42:06;8.40;87.90
15630;DHT22;7914;50.842;0.166;2023-04-01T23:44:33;8.40;88.40
15630;DHT22;7914;50.842;0.166;2023-04-01T23:47:01;8.40;88.00
15630;DHT22;7914;50.842;0.166;2023-04-01T23:49:34;8.40;88.00
15630;DHT22;7914;50.842;0.166;2023-04-01T23:52:16;8.40;88.60
15630;DHT22;7914;50.842;0.166;2023-04-01T23:55:02;8.50;88.50
15630;DHT22;7914;50.842;0.166;2023-04-01T23:57:31;8.50;88.30
